Time;durP1;ratioP1;P1;durP2;ratioP2;P2;SDS_P1;SDS_P2;PMS_P1;PMS_P2;Temp;Humidity;BMP_temperature;BMP_pressure;BME280_temperature;BME280_humidity;BME280_pressure;Samples;Min_cycle;Max_cycle;Signal;HPM_P1;HPM_P2
2022/02/04 00:01:09;;;;;;;;;18.50;18.00;;;;;8.68;78.50;100863.34;5099656;27;45329;-69
2022/02/04 00:08:58;;;;;;;;;20.00;17.50;;;;;8.62;78.31;100843.38;5100556;27;45230;-68
2022/02/04 00:25:12;;;;;;;;;17.25;16.00;;;;;8.61;78.56;100825.94;5099246;27;45451;-67
2022/02/04 00:27:38;;;;;;;;;15.00;12.50;;;;;8.66;78.14;100838.94;5099258;27;45359;-67
2022/02/04 00:30:27;;;;;;;;;19.75;15.25;;;;;8.65;78.40;100827.56;5099637;27;45649;-67
2022/02/04 00:32:55;;;;;;;;;22.75;19.75;;;;;8.60;78.27;100824.22;5099175;27;46038;-67
2022/02/04 00:38:29;;;;;;;;;18.50;17.00;;;;;8.63;78.44;100818.88;5078634;27;45547;-66
2022/02/04 00:41:01;;;;;;;;;18.75;18.00;;;;;8.65;78.60;100818.88;5100097;27;45344;-67
2022/02/04 00:43:27;;;;;;;;;17.00;17.00;;;;;8.64;78.08;100817.97;5099017;27;46284;-67
2022/02/04 00:46:06;;;;;;;;;18.75;18.00;;;;;8.65;78.63;100821.47;5101355;27;45388;-68
2022/02/04 00:51:18;;;;;;;;;23.50;18.75;;;;;8.51;78.89;100804.38;5101130;27;45165;-67
2022/02/04 01:26:07;;;;;;;;;21.00;13.75;;;;;8.60;78.99;100816.34;5097551;27;45230;-68
2022/02/04 01:28:35;;;;;;;;;12.25;12.25;;;;;8.61;78.79;100818.06;5098366;27;45447;-68
2022/02/04 01:31:01;;;;;;;;;21.00;17.00;;;;;8.61;79.00;100824.19;5099360;27;45393;-68
2022/02/04 01:33:27;;;;;;;;;16.50;14.75;;;;;8.60;78.66;100814.59;5101996;27;45428;-67
2022/02/04 01:35:54;;;;;;;;;14.50;14.25;;;;;8.52;78.94;100806.09;5100460;27;45374;-68
2022/02/04 01:38:22;;;;;;;;;20.00;15.25;;;;;8.56;78.64;100817.34;5099152;27;45327;-68
2022/02/04 01:40:50;;;;;;;;;18.75;14.75;;;;;8.51;79.17;100809.63;5102960;27;45372;-68
2022/02/04 01:43:21;;;;;;;;;18.75;16.25;;;;;8.51;79.23;100816.63;5099395;27;45417;-69
2022/02/04 01:45:47;;;;;;;;;22.00;17.25;;;;;8.51;79.05;100814.88;5098575;27;47364;-67
2022/02/04 01:48:12;;;;;;;;;21.50;17.50;;;;;8.50;79.43;100801.78;5102541;27;45432;-67
2022/02/04 01:50:38;;;;;;;;;19.25;16.00;;;;;8.53;79.26;100814.81;5102882;27;45429;-67
2022/02/04 01:53:04;;;;;;;;;21.75;17.75;;;;;8.51;79.23;100814.88;5103214;27;45542;-67
2022/02/04 01:55:30;;;;;;;;;18.50;17.25;;;;;8.48;79.59;100810.53;5101939;27;45507;-68
2022/02/04 01:57:56;;;;;;;;;17.25;15.25;;;;;8.45;79.27;100815.84;5101617;27;45319;-68
2022/02/04 02:00:21;;;;;;;;;16.50;15.25;;;;;8.44;79.30;100808.00;5104266;27;45392;-67
2022/02/04 02:02:46;;;;;;;;;21.00;16.50;;;;;8.44;79.82;100814.13;5102307;27;45346;-68
2022/02/04 02:05:12;;;;;;;;;21.25;16.50;;;;;8.44;79.49;100819.38;5101591;27;46223;-66
2022/02/04 02:07:43;;;;;;;;;19.25;16.75;;;;;8.40;79.57;100814.25;5102029;27;45260;-69
2022/02/04 02:10:14;;;;;;;;;18.50;17.00;;;;;8.38;79.95;100816.91;5101729;27;45481;-66
2022/02/04 02:13:10;;;;;;;;;15.50;14.00;;;;;8.42;78.97;100815.06;5101774;27;45271;-68
2022/02/04 02:15:39;;;;;;;;;19.50;15.50;;;;;8.37;79.74;100803.84;5101379;27;46578;-66
2022/02/04 02:58:57;;;;;;;;;13.00;12.00;;;;;8.30;82.01;100772.56;5101555;27;46011;-67
2022/02/04 03:01:22;;;;;;;;;15.50;12.75;;;;;8.30;82.01;100774.34;5101072;27;45408;-66
2022/02/04 03:03:54;;;;;;;;;16.25;11.50;;;;;8.29;81.67;100770.84;5100965;27;45515;-66
2022/02/04 03:06:19;;;;;;;;;15.00;13.00;;;;;8.29;81.95;100773.47;5103896;27;45465;-65
2022/02/04 03:08:45;;;;;;;;;17.00;12.00;;;;;8.27;82.23;100770.03;5100010;27;45391;-67
2022/02/04 03:11:11;;;;;;;;;14.00;9.75;;;;;8.25;82.74;100769.22;5100866;27;45289;-66
2022/02/04 03:13:36;;;;;;;;;12.75;12.75;;;;;8.22;82.87;100766.66;5100963;27;45207;-67
2022/02/04 03:16:09;;;;;;;;;13.00;10.50;;;;;8.19;83.30;100759.78;5101470;27;45512;-66
2022/02/04 03:18:38;;;;;;;;;14.50;13.25;;;;;8.16;83.73;100758.97;5101923;27;46024;-67
2022/02/04 03:21:10;;;;;;;;;13.00;10.75;;;;;7.94;83.76;100724.63;5100821;27;45416;-67
2022/02/04 03:23:38;;;;;;;;;17.25;12.00;;;;;8.12;83.50;100758.22;5104774;27;45222;-67
2022/02/04 03:26:14;;;;;;;;;6.25;6.00;;;;;8.04;83.91;100739.22;5107529;27;45281;-67
2022/02/04 03:28:40;;;;;;;;;16.25;12.00;;;;;8.07;84.78;100741.75;5100388;27;47948;-67
2022/02/04 03:31:07;;;;;;;;;11.25;9.25;;;;;8.04;84.47;100740.06;5098927;27;45321;-67
2022/02/04 03:33:33;;;;;;;;;12.00;11.25;;;;;8.08;84.38;100743.47;5100802;27;45876;-70
2022/02/04 03:35:59;;;;;;;;;12.25;11.00;;;;;8.07;84.48;100738.28;5101060;27;45607;-67
2022/02/04 03:38:24;;;;;;;;;14.00;11.50;;;;;8.01;84.70;100737.53;5101343;27;46171;-68
2022/02/04 03:40:50;;;;;;;;;9.00;7.25;;;;;8.04;83.78;100747.94;5101817;27;45349;-68
2022/02/04 03:43:15;;;;;;;;;14.00;11.75;;;;;8.08;83.90;100746.09;5101905;27;45216;-67
2022/02/04 03:45:41;;;;;;;;;10.75;10.00;;;;;8.08;84.02;100735.63;5100672;27;45543;-67
2022/02/04 03:48:06;;;;;;;;;16.00;11.50;;;;;8.11;84.46;100747.75;5099588;27;47156;-67
2022/02/04 03:50:32;;;;;;;;;15.00;14.25;;;;;8.11;83.89;100732.03;5103707;27;45377;-68
2022/02/04 03:52:59;;;;;;;;;13.75;11.25;;;;;8.13;84.00;100746.84;5104491;27;45465;-66
2022/02/04 03:55:25;;;;;;;;;16.50;12.25;;;;;8.12;84.10;100739.88;5100153;27;45377;-67
2022/02/04 03:57:50;;;;;;;;;11.25;11.00;;;;;8.12;84.08;100739.88;5099755;27;46815;-68
2022/02/04 04:00:16;;;;;;;;;16.00;13.00;;;;;8.13;84.16;100738.97;5100798;27;45320;-69
2022/02/04 04:02:43;;;;;;;;;13.00;11.75;;;;;8.12;84.09;100742.50;5101031;27;45307;-68
2022/02/04 04:05:11;;;;;;;;;13.50;12.00;;;;;8.13;83.67;100741.59;5099849;27;45181;-69
2022/02/04 04:07:43;;;;;;;;;15.75;14.00;;;;;8.07;84.06;100733.03;5099891;27;47134;-69
2022/02/04 04:10:13;;;;;;;;;14.50;14.00;;;;;8.08;83.57;100742.59;5098870;27;45800;-68
2022/02/04 04:12:38;;;;;;;;;15.25;13.25;;;;;8.06;83.80;100740.03;5100344;27;45379;-69
2022/02/04 04:15:07;;;;;;;;;13.75;11.75;;;;;8.04;84.04;100736.59;5099472;27;45544;-68
2022/02/04 04:17:39;;;;;;;;;17.50;13.00;;;;;8.04;83.95;100737.44;5099201;27;46472;-70
2022/02/04 04:20:16;;;;;;;;;15.25;14.00;;;;;8.00;84.00;100725.34;5098702;27;45293;-68
2022/02/04 04:22:42;;;;;;;;;20.75;15.00;;;;;8.04;83.79;100732.22;5099113;27;45267;-66
2022/02/04 04:25:10;;;;;;;;;15.00;13.75;;;;;8.07;84.51;100741.75;5099205;27;45242;-68
2022/02/04 04:27:36;;;;;;;;;19.00;16.25;;;;;8.04;83.80;100728.75;5098716;27;45456;-68
2022/02/04 04:30:03;;;;;;;;;19.00;18.00;;;;;8.08;84.30;100738.25;5096530;27;45306;-65
2022/02/04 04:32:28;;;;;;;;;20.25;18.25;;;;;8.09;84.47;100734.72;5097991;27;45470;-68
2022/02/04 04:34:54;;;;;;;;;19.00;15.75;;;;;8.08;84.10;100730.38;5098524;27;45407;-69
2022/02/04 04:37:20;;;;;;;;;19.75;17.75;;;;;8.09;84.13;100734.72;5098777;27;46310;-67
2022/02/04 05:30:58;;;;;;;;;21.75;18.00;;;;;8.22;84.68;100695.91;5100063;27;45988;-67
2022/02/04 05:33:24;;;;;;;;;24.25;21.50;;;;;8.23;84.17;100700.25;5099724;27;45473;-69
2022/02/04 05:35:49;;;;;;;;;27.75;19.50;;;;;8.23;84.41;100696.78;5099727;27;45306;-68
2022/02/04 05:38:16;;;;;;;;;24.00;20.25;;;;;8.25;84.70;100698.44;5100867;27;45601;-69
2022/02/04 05:40:44;;;;;;;;;25.50;23.00;;;;;8.25;84.29;100697.59;5101534;27;45923;-73
2022/02/04 05:43:20;;;;;;;;;22.75;19.00;;;;;8.26;84.32;100694.94;5100183;27;45251;-69
2022/02/04 05:46:00;;;;;;;;;26.00;21.25;;;;;8.25;84.23;100703.69;5102732;27;45239;-68
2022/02/04 05:48:27;;;;;;;;;26.50;21.00;;;;;8.27;85.06;100701.88;5101839;27;45580;-69
2022/02/04 05:53:48;;;;;;;;;25.50;22.50;;;;;8.27;84.76;100693.19;5103499;27;45356;-70
2022/02/04 05:57:08;;;;;;;;;26.50;21.50;;;;;8.21;85.06;100675.00;5099624;27;45234;-68
2022/02/04 06:01:47;;;;;;;;;24.25;23.00;;;;;8.32;84.02;100686.03;5100357;27;45242;-67
2022/02/04 06:12:26;;;;;;;;;27.25;22.50;;;;;8.32;84.37;100679.03;5100860;27;45420;-69
2022/02/04 06:15:14;;;;;;;;;23.75;21.00;;;;;8.31;85.25;100687.78;5098817;27;45337;-68
2022/02/04 06:22:09;;;;;;;;;23.25;23.00;;;;;8.30;84.59;100683.44;5099895;27;45409;-67
2022/02/04 06:23:15;;;;;;;;;28.25;24.50;;;;;8.25;84.99;100677.47;5102417;27;46011;-68
2022/02/04 06:25:42;;;;;;;;;28.25;23.25;;;;;8.30;84.93;100696.56;5098783;27;45418;-68
2022/02/04 06:28:08;;;;;;;;;29.75;25.50;;;;;8.30;85.17;100693.09;5098807;27;45477;-68
2022/02/04 06:30:34;;;;;;;;;25.25;23.75;;;;;8.30;85.10;100687.84;5101653;27;45570;-68
2022/02/04 06:32:59;;;;;;;;;30.00;26.50;;;;;8.29;85.60;100688.75;5096940;27;45355;-68
2022/02/04 06:35:25;;;;;;;;;24.75;17.50;;;;;8.28;85.07;100698.34;5099511;27;45462;-68
2022/02/04 06:37:50;;;;;;;;;27.00;22.50;;;;;8.26;85.81;100694.94;5099283;27;45274;-68
2022/02/04 06:40:16;;;;;;;;;21.75;19.75;;;;;8.22;85.67;100684.59;5100530;27;45345;-67
2022/02/04 06:42:41;;;;;;;;;24.75;21.50;;;;;8.18;85.40;100675.94;5099583;27;46178;-67
2022/02/04 06:45:08;;;;;;;;;28.75;20.75;;;;;8.23;85.35;100694.16;5101448;27;45367;-65
2022/02/04 06:47:36;;;;;;;;;28.00;24.25;;;;;8.23;84.93;100673.22;5100198;27;45218;-67
2022/02/04 06:50:04;;;;;;;;;25.00;23.25;;;;;8.26;85.51;100679.19;5100295;27;45595;-65
2022/02/04 06:52:30;;;;;;;;;37.00;32.50;;;;;8.25;85.13;100674.84;5099450;27;45490;-69
2022/02/04 06:54:55;;;;;;;;;28.50;24.00;;;;;8.24;85.55;100667.06;5099685;27;45341;-66
2022/02/04 06:57:21;;;;;;;;;25.00;22.00;;;;;8.27;84.86;100677.44;5100637;27;45655;-68
2022/02/04 06:59:47;;;;;;;;;25.75;23.00;;;;;8.26;85.54;100673.97;5098775;27;45310;-66
2022/02/04 07:02:13;;;;;;;;;26.75;20.50;;;;;8.27;85.36;100683.53;5098678;27;45376;-67
2022/02/04 07:04:40;;;;;;;;;31.00;25.50;;;;;8.27;85.17;100670.44;5098616;27;45338;-67
2022/02/04 07:07:05;;;;;;;;;32.25;23.50;;;;;8.27;85.74;100673.06;5099088;27;45488;-70
2022/02/04 07:20:03;;;;;;;;;23.00;22.00;;;;;8.25;85.83;100677.47;5098895;27;45387;-67
2022/02/04 07:22:31;;;;;;;;;27.00;24.50;;;;;8.26;85.84;100687.06;5099169;27;45460;-66
2022/02/04 07:25:00;;;;;;;;;25.75;23.25;;;;;8.28;86.12;100685.25;5097383;27;45457;-66
2022/02/04 07:27:26;;;;;;;;;28.50;24.00;;;;;8.28;85.96;100677.38;5098107;27;45381;-63
2022/02/04 07:29:54;;;;;;;;;26.25;25.00;;;;;8.29;86.58;100678.25;5098220;27;45336;-65
2022/02/04 07:32:27;;;;;;;;;31.75;25.50;;;;;8.29;85.87;100673.88;5097609;27;46313;-62
2022/02/04 07:42:50;;;;;;;;;23.50;21.75;;;;;8.28;85.82;100676.53;5093823;27;45723;-60
2022/02/04 07:45:15;;;;;;;;;23.75;19.75;;;;;8.28;86.14;100661.66;5095938;27;45503;-62
2022/02/04 07:47:41;;;;;;;;;22.75;21.25;;;;;8.30;86.08;100675.59;5087008;27;45500;-64
2022/02/04 07:50:07;;;;;;;;;26.75;24.25;;;;;8.26;85.76;100663.47;5077832;27;45548;-64
2022/02/04 07:52:33;;;;;;;;;30.50;24.25;;;;;8.30;86.11;100661.63;5078346;27;46042;-65
2022/02/04 07:54:58;;;;;;;;;20.00;19.50;;;;;8.32;86.67;100657.22;5088215;27;45348;-64
2022/02/04 07:57:23;;;;;;;;;20.50;19.75;;;;;8.36;85.76;100663.19;5094463;27;45318;-63
2022/02/04 07:59:49;;;;;;;;;24.75;22.75;;;;;8.29;86.46;100638.94;5095631;27;45226;-63
2022/02/04 08:02:15;;;;;;;;;22.75;22.00;;;;;8.39;85.79;100653.50;5096638;27;47179;-62
2022/02/04 08:04:43;;;;;;;;;23.75;22.00;;;;;8.43;86.22;100656.88;5100101;27;45443;-62
2022/02/04 08:07:13;;;;;;;;;22.50;19.50;;;;;8.38;85.56;100649.16;5101642;27;45555;-67
2022/02/04 08:48:56;;;;;;;;;22.25;19.25;;;;;8.81;83.02;100660.13;5076564;28;45432;-63
2022/02/04 08:59:15;;;;;;;;;25.50;20.50;;;;;8.82;82.43;100655.72;5097447;27;45245;-64
2022/02/04 09:01:48;;;;;;;;;19.00;17.00;;;;;8.80;82.63;100655.78;5108909;27;45497;-62
2022/02/04 09:04:17;;;;;;;;;24.50;18.75;;;;;8.85;82.65;100663.50;5094550;27;48634;-60
2022/02/04 09:06:50;;;;;;;;;20.25;17.00;;;;;8.85;82.09;100661.75;5085308;27;45563;-64
2022/02/04 09:09:28;;;;;;;;;19.75;15.50;;;;;8.80;81.93;100647.94;5090609;27;45366;-64
2022/02/04 09:12:05;;;;;;;;;21.50;18.00;;;;;8.90;82.08;100656.34;5101194;27;45544;-63
2022/02/04 09:17:45;;;;;;;;;19.00;16.25;;;;;9.00;82.06;100647.25;5080150;27;45322;-62
2022/02/04 09:20:08;;;;;;;;;22.00;15.75;;;;;9.04;81.36;100648.03;5095741;27;45821;-63
2022/02/04 09:25:03;;;;;;;;;16.50;15.25;;;;;9.05;80.29;100641.88;5087613;27;45348;-62
2022/02/04 09:27:29;;;;;;;;;14.75;13.50;;;;;9.08;80.11;100647.03;5075718;27;45256;-61
2022/02/04 09:29:54;;;;;;;;;19.50;17.50;;;;;9.08;80.63;100644.41;5078317;27;45425;-60
2022/02/04 09:32:19;;;;;;;;;14.75;14.00;;;;;9.14;80.50;100641.56;5081077;27;45207;-60
2022/02/04 09:34:45;;;;;;;;;15.50;11.00;;;;;9.16;80.32;100636.28;5095677;27;46254;-61
2022/02/04 09:37:10;;;;;;;;;18.00;16.50;;;;;9.21;80.25;100642.25;5094707;27;45318;-62
2022/02/04 09:39:36;;;;;;;;;18.00;15.25;;;;;9.26;79.50;100639.44;5081860;27;45375;-61
2022/02/04 09:42:01;;;;;;;;;15.00;15.00;;;;;9.23;79.73;100640.41;5078037;27;45535;-63
2022/02/04 09:44:27;;;;;;;;;17.75;16.00;;;;;9.27;79.16;100638.53;5088188;27;45943;-61
2022/02/04 09:46:55;;;;;;;;;16.00;14.50;;;;;9.30;79.48;100643.69;5096135;27;45240;-61
2022/02/04 09:49:27;;;;;;;;;17.00;14.00;;;;;9.28;79.30;100637.63;5085631;27;45426;-60
2022/02/04 10:17:09;;;;;;;;;17.00;14.50;;;;;9.16;80.95;100654.66;5100916;27;46016;-61
2022/02/04 10:22:05;;;;;;;;;24.50;19.50;;;;;9.22;82.05;100620.34;5106491;27;45332;-61
2022/02/04 10:24:32;;;;;;;;;20.75;16.25;;;;;9.33;81.77;100610.31;5099063;27;45469;-62
2022/02/04 10:27:11;;;;;;;;;17.25;16.50;;;;;9.52;81.54;100604.44;5099732;27;47115;-63
2022/02/04 10:29:50;;;;;;;;;13.50;11.75;;;;;9.68;80.23;100604.75;5100832;27;45463;-66
2022/02/04 10:32:15;;;;;;;;;15.50;13.75;;;;;9.82;79.03;100598.13;5097471;27;45504;-65
2022/02/04 10:34:43;;;;;;;;;14.00;12.50;;;;;9.93;79.29;100609.09;5098972;27;45515;-62
2022/02/04 10:37:23;;;;;;;;;13.00;12.00;;;;;10.04;78.06;100606.06;5099307;27;47145;-61
2022/02/04 10:42:40;;;;;;;;;12.50;11.75;;;;;10.23;77.38;100593.94;5097519;27;45479;-62
2022/02/04 11:04:34;;;;;;;;;14.00;11.00;;;;;10.63;74.69;100599.44;5081160;27;45353;-65
2022/02/04 11:34:15;;;;;;;;;13.50;10.75;;;;;10.92;72.35;100568.44;5077613;27;45507;-64
2022/02/04 11:51:45;;;;;;;;;10.25;7.50;;;;;10.84;70.68;100531.06;5084313;27;45440;-62
2022/02/04 11:57:03;;;;;;;;;5.25;3.75;;;;;11.13;69.72;100518.44;5095260;27;45356;-61
2022/02/04 11:59:35;;;;;;;;;4.75;4.75;;;;;11.29;69.68;100507.22;5096726;27;45281;-61
2022/02/04 12:02:02;;;;;;;;;8.25;8.00;;;;;11.50;69.19;100495.72;5095659;27;45486;-62
2022/02/04 12:04:27;;;;;;;;;8.50;8.50;;;;;11.64;68.87;100494.22;5096391;27;45446;-63
2022/02/04 12:06:56;;;;;;;;;8.75;6.00;;;;;11.68;68.28;100487.94;5096502;27;45691;-61
2022/02/04 12:09:34;;;;;;;;;11.25;9.25;;;;;11.80;68.05;100490.00;5097505;27;45263;-60
2022/02/04 12:12:00;;;;;;;;;4.00;1.25;;;;;11.90;67.07;100486.91;5098239;27;45572;-61
2022/02/04 12:14:33;;;;;;;;;14.00;7.00;;;;;11.98;67.15;100496.16;5097008;27;46294;-61
2022/02/04 12:17:03;;;;;;;;;8.00;6.00;;;;;12.10;66.45;100497.41;5097867;27;46184;-62
2022/02/04 12:19:40;;;;;;;;;7.00;5.50;;;;;12.13;64.59;100481.44;5098636;27;45472;-61
2022/02/04 12:22:07;;;;;;;;;6.00;5.00;;;;;12.11;64.93;100485.06;5097187;27;45456;-62
2022/02/04 12:24:38;;;;;;;;;5.00;4.00;;;;;12.15;64.77;100483.97;5096128;27;46002;-62
2022/02/04 12:27:35;;;;;;;;;6.00;5.00;;;;;12.17;64.68;100466.28;5096612;27;45480;-61
2022/02/04 12:30:31;;;;;;;;;6.75;5.00;;;;;12.16;64.39;100451.41;5095866;27;45445;-61
2022/02/04 12:32:57;;;;;;;;;4.00;4.00;;;;;12.13;64.68;100444.50;5096775;27;45404;-60
2022/02/04 12:35:28;;;;;;;;;7.00;6.25;;;;;12.21;64.76;100446.78;5095135;27;46212;-62
2022/02/04 12:37:53;;;;;;;;;6.00;4.25;;;;;12.25;64.07;100431.66;5094320;27;45374;-62
2022/02/04 12:40:21;;;;;;;;;3.25;3.00;;;;;12.36;64.12;100428.50;5095558;27;45713;-61
2022/02/04 12:42:47;;;;;;;;;6.75;5.25;;;;;12.40;62.87;100430.88;5096239;27;45608;-63
2022/02/04 12:45:13;;;;;;;;;5.25;2.25;;;;;12.35;62.60;100422.34;5096757;27;45587;-65
2022/02/04 12:47:41;;;;;;;;;5.50;3.00;;;;;12.34;62.12;100414.53;5097200;27;45179;-64
2022/02/04 12:50:08;;;;;;;;;4.50;3.00;;;;;12.33;62.47;100405.75;5096508;27;45311;-61
2022/02/04 12:52:47;;;;;;;;;4.50;3.25;;;;;12.35;61.97;100393.34;5077020;27;46008;-62
2022/02/04 12:55:23;;;;;;;;;6.50;4.00;;;;;12.38;61.91;100405.53;5075351;27;46718;-62
2022/02/04 12:58:09;;;;;;;;;5.00;4.00;;;;;12.32;61.71;100401.41;5075290;27;45384;-61
2022/02/04 13:03:15;;;;;;;;;3.50;2.75;;;;;12.29;60.94;100413.91;5076790;27;45397;-63
2022/02/04 13:08:45;;;;;;;;;2.00;1.00;;;;;12.40;60.58;100406.31;5081037;27;45365;-61
2022/02/04 13:11:15;;;;;;;;;3.50;2.00;;;;;12.39;60.76;100405.44;5077934;27;45334;-63
2022/02/04 13:13:47;;;;;;;;;2.50;2.00;;;;;12.43;60.03;100398.22;5074615;27;45598;-62
2022/02/04 13:16:21;;;;;;;;;1.50;1.25;;;;;12.39;59.74;100388.78;5075074;27;46322;-63
2022/02/04 13:18:46;;;;;;;;;4.25;2.00;;;;;12.40;59.46;100401.03;5075608;27;45423;-61
2022/02/04 13:21:13;;;;;;;;;1.75;0.75;;;;;12.38;60.17;100394.97;5076168;27;45454;-62
2022/02/04 13:23:42;;;;;;;;;2.00;2.00;;;;;12.38;61.18;100389.69;5075509;27;45242;-63
2022/02/04 13:26:07;;;;;;;;;4.50;3.75;;;;;12.38;60.86;100395.81;5074943;27;45464;-64
2022/02/04 13:28:39;;;;;;;;;3.75;2.50;;;;;12.34;61.09;100385.50;5075301;27;45740;-62
2022/02/04 13:31:06;;;;;;;;;3.00;3.00;;;;;12.44;60.59;100385.88;5075847;27;45496;-62
2022/02/04 13:33:42;;;;;;;;;3.50;2.00;;;;;12.41;61.28;100389.53;5077585;27;46872;-59
2022/02/04 13:41:43;;;;;;;;;3.00;3.00;;;;;12.18;61.76;100411.78;5097319;27;45303;-63
2022/02/04 13:46:52;;;;;;;;;4.25;2.50;;;;;12.03;62.19;100400.22;5099515;27;45364;-66
2022/02/04 13:52:18;;;;;;;;;3.50;2.50;;;;;12.05;62.84;100398.34;5099954;27;45479;-64
2022/02/04 14:01:16;;;;;;;;;1.25;1.25;;;;;12.18;62.54;100415.25;5078770;27;45342;-61
2022/02/04 14:03:12;;;;;;;;;4.50;2.50;;;;;12.21;62.60;100403.72;5074396;27;45331;-63
2022/02/04 14:05:46;;;;;;;;;4.00;1.75;;;;;12.08;61.98;100404.34;5080175;27;45471;-62
2022/02/04 14:08:16;;;;;;;;;3.00;2.75;;;;;12.08;62.19;100417.53;5084089;27;47110;-63
2022/02/04 14:10:49;;;;;;;;;4.00;4.00;;;;;12.05;62.78;100412.41;5078745;27;45414;-62
2022/02/04 14:13:21;;;;;;;;;2.00;1.00;;;;;11.73;62.18;100375.25;5078704;27;45482;-64
2022/02/04 14:15:52;;;;;;;;;2.00;2.00;;;;;12.02;62.90;100409.91;5076821;27;45424;-62
2022/02/04 14:18:17;;;;;;;;;5.50;2.00;;;;;11.95;62.43;100417.22;5091687;27;46503;-62
2022/02/04 14:20:44;;;;;;;;;2.50;1.00;;;;;11.94;62.86;100427.84;5096028;27;45733;-66
2022/02/04 14:23:10;;;;;;;;;2.00;1.25;;;;;11.94;63.60;100422.59;5099502;27;45451;-65
2022/02/04 14:25:58;;;;;;;;;5.00;2.00;;;;;11.92;63.22;100442.91;5100066;27;45567;-64
2022/02/04 14:28:35;;;;;;;;;10.25;10.25;;;;;11.88;63.03;100430.78;5085705;27;48683;-61
2022/02/04 14:31:11;;;;;;;;;3.00;2.00;;;;;11.83;63.24;100423.97;5099689;27;45408;-63
2022/02/04 15:02:45;;;;;;;;;5.00;2.50;;;;;10.82;72.84;100498.72;5089260;27;45617;-64
2022/02/04 15:05:15;;;;;;;;;0.00;0.00;;;;;10.63;73.11;100507.38;5101837;27;45545;-64
2022/02/04 15:07:42;;;;;;;;;2.25;2.25;;;;;10.45;74.84;100544.94;5099355;27;45482;-64
